Currently 77°F in Riverside (Presidential Park), California, USA
77°F
85°F / 51°F
5 mph S
0.00"
Saturday, January 16, 2021 6:42 PM PST

Riverside (Presidential Park), California Weather Summary
Last 36 Hours

Temperature Winds Hourly Humidity Dewpoint
Time Report Norm Report Norm Max Gusts Precip. Rpt. Norm Rpt. Norm Pressure
1Sat 06:42 PM  76.7°F  60°F  5 mph S  3 mph  14 mph  0.00"  16%  50%  25°F  41°F  29.97"
Sat 06:00 PM  78.3°F  62°F  5 mph S  3 mph  19 mph  0.00"  15%  47%  25°F  41°F  29.96"
Sat 05:00 PM  80.6°F  65°F  9 mph W  4 mph  20 mph  0.00"  14%  42%  24°F  40°F  29.94"
Sat 04:00 PM  82.6°F  67°F  9 mph SW  5 mph  24 mph  0.00"  12%  39%  23°F  40°F  29.93"
Sat 03:00 PM  83.8°F  68°F  9 mph W  6 mph  26 mph  0.00"  12%  38%  24°F  40°F  29.94"
Sat 02:00 PM  84.1°F  68°F  10 mph NW  5 mph  26 mph  0.00"  12%  38%  24°F  40°F  29.94"
Sat 01:00 PM  84.3°F  68°F  9 mph W  5 mph  24 mph  0.00"  12%  39%  24°F  40°F  29.95"
2Sat 12:53 PM  84.7°F  67°F  6 mph W  4 mph  21 mph  ----  12%  39%  24°F  40°F  29.95"
Sat 12:00 PM  83.3°F  65°F  10 mph SE  4 mph  21 mph  0.00"  12%  43%  23°F  42°F  29.98"
Sat 11:00 AM  81.9°F  62°F  7 mph W  3 mph  18 mph  0.00"  12%  49%  22°F  42°F  30.00"
Sat 10:00 AM  78.7°F  59°F  6 mph SW  2 mph  12 mph  0.00"  15%  56%  25°F  43°F  30.01"
Sat 09:00 AM  67.8°F  55°F  1 mph E  2 mph  7 mph  0.00"  30%  64%  34°F  42°F  30.00"
Sat 08:00 AM  53.5°F  50°F  calm  1 mph  5 mph  0.00"  45%  70%  32°F  40°F  29.99"
Sat 07:00 AM  51.4°F  48°F  calm  1 mph  4 mph  0.00"  46%  71%  31°F  39°F  29.98"
3Sat 06:42 AM  51.0°F  48°F  2 mph SE  2 mph  4 mph  ----  46%  71%  30°F  39°F  29.98"
Sat 06:00 AM  51.5°F  49°F  calm  1 mph  4 mph  0.00"  45%  71%  30°F  39°F  29.98"
Sat 05:00 AM  52.6°F  49°F  calm  1 mph  5 mph  0.00"  44%  71%  30°F  39°F  29.98"
Sat 04:00 AM  52.8°F  49°F  calm  2 mph  4 mph  0.00"  44%  71%  31°F  40°F  29.98"
Sat 03:00 AM  53.6°F  49°F  calm  1 mph  2 mph  0.00"  42%  71%  30°F  40°F  29.99"
Sat 02:00 AM  54.3°F  50°F  calm  1 mph  4 mph  0.00"  40%  70%  29°F  40°F  30.00"
Sat 01:00 AM  55.8°F  51°F  calm  1 mph  4 mph  0.00"  37%  69%  29°F  40°F  30.00"
Sat 12:00 AM  57.5°F  51°F  calm  1 mph  3 mph  0.00"  34%  68%  28°F  40°F  30.01"
Fri 11:00 PM  59.6°F  52°F  calm  1 mph  3 mph  0.00"  31%  65%  28°F  41°F  30.01"
Fri 10:00 PM  61.9°F  54°F  2 mph E  2 mph  4 mph  0.00"  26%  63%  26°F  41°F  30.03"
Fri 09:00 PM  64.4°F  55°F  1 mph E  2 mph  4 mph  0.00"  23%  61%  25°F  41°F  30.03"
Fri 08:00 PM  70.9°F  56°F  calm  2 mph  6 mph  0.00"  15%  58%  19°F  41°F  30.03"
Fri 07:00 PM  74.6°F  59°F  3 mph NE  2 mph  10 mph  0.00"  10%  54%  13°F  42°F  30.03"
Fri 06:00 PM  77.2°F  61°F  6 mph NE  3 mph  11 mph  0.00"  9%  50%  12°F  42°F  30.03"
Fri 05:00 PM  81.9°F  64°F  4 mph SW  4 mph  14 mph  0.00"  8%  44%  13°F  41°F  30.03"
Fri 04:00 PM  84.7°F  67°F  7 mph SW  5 mph  18 mph  0.00"  7%  41%  10°F  41°F  30.03"
Fri 03:00 PM  84.8°F  67°F  6 mph SW  5 mph  21 mph  0.00"  6%  40%  8°F  41°F  30.05"
Fri 02:00 PM  85.3°F  67°F  9 mph E  5 mph  20 mph  0.00"  7%  40%  10°F  41°F  30.07"
Fri 01:00 PM  84.7°F  67°F  9 mph S  5 mph  20 mph  0.00"  7%  41%  11°F  41°F  30.08"
Fri 12:00 PM  82.6°F  65°F  11 mph SW  4 mph  21 mph  0.00"  8%  46%  13°F  42°F  30.12"
Fri 11:00 AM  81.0°F  62°F  8 mph NE  3 mph  17 mph  0.00"  11%  52%  19°F  43°F  30.17"
Fri 10:00 AM  78.1°F  58°F  3 mph NE  2 mph  7 mph  0.00"  14%  59%  23°F  43°F  30.20"
Fri 09:00 AM  70.6°F  54°F  calm  2 mph  3 mph  0.00"  28%  66%  35°F  43°F  30.20"
Fri 08:00 AM  65.3°F  49°F  calm  1 mph  6 mph  0.00"  24%  73%  26°F  40°F  30.19"
Fri 07:00 AM  67.2°F  48°F  3 mph SE  1 mph  14 mph  0.00"  20%  73%  24°F  39°F  30.18"

  1. Current weather data. No green row appears if the current weather data is also the high or low for the current day.
  2. High temperature for the current day.
  3. Low temperature for the current day.

The Riverside (Presidential Park), California weather pages are a service of WeatherCurrents.
Copyright ©2021  WeatherCurrents. All rights reserved. - Submit questions and comments - Privacy Policy

This page automatically refreshes every 10 minutes.